Terminal Aerodrome Forecast
Issued by NWS Duluth, MN

Home | Current Version | Previous Version | Text Only | Print | Product List | Glossary On
Versions: 1 2 3 4 5 6 7 8 9 10 11 12 13 14 15 16 17 18 19
000
FTUS43 KDLH 032200 AAB
TAFINL
TAF AMD
KINL 032247Z 0323/0418 29018G27KT P6SM BKN035
     FM040500 29012G20KT P6SM SCT030
     FM041600 30011KT 6SM -SN BKN030=

USA.gov is the U.S. government's official web portal to all federal, state and local government web resources and services.